TimeCDT,TemperatureF,Dew PointF,Humidity,Sea Level PressureIn,VisibilityMPH,Wind Direction,Wind SpeedMPH,Gust SpeedMPH,PrecipitationIn,Events,Conditions,WindDirDegrees,DateUTC
12:54 AM,66.0,59.0,78,30.15,10.0,SSE,8.1,-,N/A,,Clear,160,2013-04-27 05:54:00
1:54 AM,64.0,59.0,84,30.16,10.0,SSW,4.6,-,N/A,,Clear,200,2013-04-27 06:54:00
2:54 AM,64.9,60.1,84,30.15,10.0,South,3.5,-,N/A,,Overcast,190,2013-04-27 07:54:00
3:54 AM,64.9,60.1,84,30.14,10.0,South,6.9,-,N/A,,Mostly Cloudy,170,2013-04-27 08:54:00
4:54 AM,63.0,59.0,87,30.14,10.0,SE,4.6,-,N/A,,Overcast,140,2013-04-27 09:54:00
4:59 AM,62.6,60.8,94,30.15,10.0,SSE,4.6,-,N/A,,Overcast,150,2013-04-27 09:59:00
5:25 AM,62.6,59.0,88,30.15,10.0,SSE,3.5,-,N/A,,Mostly Cloudy,150,2013-04-27 10:25:00
5:54 AM,62.1,60.1,93,30.14,6.0,South,5.8,-,N/A,,Mostly Cloudy,180,2013-04-27 10:54:00
6:01 AM,62.6,60.8,94,30.16,6.0,South,5.8,-,N/A,,Mostly Cloudy,180,2013-04-27 11:01:00
6:21 AM,62.6,60.8,94,30.16,6.0,South,8.1,-,N/A,,Overcast,180,2013-04-27 11:21:00
6:54 AM,63.0,62.1,97,30.16,4.0,South,4.6,-,N/A,,Overcast,190,2013-04-27 11:54:00
7:54 AM,64.9,63.0,93,30.18,5.0,SSW,5.8,-,N/A,,Overcast,210,2013-04-27 12:54:00
8:54 AM,68.0,64.0,87,30.15,10.0,SSW,9.2,-,N/A,,Mostly Cloudy,200,2013-04-27 13:54:00
9:23 AM,71.6,64.4,78,30.14,10.0,SSW,9.2,-,N/A,,Scattered Clouds,200,2013-04-27 14:23:00
9:54 AM,73.9,64.9,73,30.13,10.0,SSW,6.9,-,N/A,,Partly Cloudy,200,2013-04-27 14:54:00
10:54 AM,79.0,64.0,60,30.12,10.0,South,20.7,26.5,N/A,,Partly Cloudy,190,2013-04-27 15:54:00
11:54 AM,79.0,64.0,60,30.12,10.0,SSW,11.5,-,N/A,,Overcast,210,2013-04-27 16:54:00
12:54 PM,81.0,64.0,56,30.09,10.0,South,17.3,23.0,N/A,,Mostly Cloudy,190,2013-04-27 17:54:00
1:54 PM,79.0,64.0,60,30.08,10.0,SSW,13.8,20.7,N/A,,Mostly Cloudy,210,2013-04-27 18:54:00
2:54 PM,79.0,62.1,56,30.06,10.0,SW,15.0,21.9,N/A,,Mostly Cloudy,220,2013-04-27 19:54:00
3:54 PM,78.1,64.0,62,30.04,10.0,SSW,9.2,-,0.00,,Mostly Cloudy,200,2013-04-27 20:54:00
4:54 PM,81.0,64.0,56,30.01,10.0,South,11.5,19.6,N/A,,Scattered Clouds,180,2013-04-27 21:54:00
5:54 PM,79.0,64.9,62,30.00,10.0,SSW,12.7,-,N/A,,Partly Cloudy,200,2013-04-27 22:54:00
6:54 PM,77.0,64.0,64,29.99,10.0,South,11.5,-,N/A,,Partly Cloudy,190,2013-04-27 23:54:00
7:54 PM,73.0,64.9,76,29.99,10.0,South,5.8,-,N/A,,Clear,190,2013-04-28 00:54:00
8:54 PM,73.0,64.9,76,30.00,10.0,South,6.9,-,N/A,,Overcast,180,2013-04-28 01:54:00
9:54 PM,72.0,64.9,78,30.03,10.0,South,5.8,-,N/A,,Mostly Cloudy,190,2013-04-28 02:54:00
10:54 PM,71.1,64.9,81,30.01,10.0,South,6.9,-,N/A,,Scattered Clouds,180,2013-04-28 03:54:00
11:54 PM,71.1,64.9,81,29.99,10.0,South,13.8,-,N/A,,Clear,170,2013-04-28 04:54:00